YBNA

Details ICAO YBNA (BNK)
Name Ballina/Byron Gateway
Region Australia
Timezone Australia/Sydney (UTC+10.0)
Plans Departing 150
Arriving 209
Stats Elevation 7 ft / 2 m (AMSL)
Location -28.833300° 153.561000°
Runways 1
Magnetic Variation 11.585° E
Sunrise 2021-07-24 20:34:48 UTC / 2021-07-25 06:34:48 Local
Sunset 2021-07-25 07:12:00 UTC / 2021-07-25 17:12:00 Local
Advertisement - Login to hide

Runways

ID Width Length Bearing (true/mag) Surface Threshold Overrun Markings Lighting
06 98 ft / 30 m 6,224 ft / 1,897 m 73.43° / 61.85° ASPHALT 0 ft / 0 m 0 ft / 0 m PREC-APP EDGE THRESHOLD
24 98 ft / 30 m 6,224 ft / 1,897 m 253.42° / 241.84° ASPHALT 0 ft / 0 m 0 ft / 0 m PREC-APP EDGE THRESHOLD

Map

Weather


0- 5 10 15 20 25 30 35+ Temperature / °C

Clouds and Precipitation
Forecast for 2021-07-25 06:00 UTC. Updated 2 hours ago

Ground ~20,000 ft ~40,000 ft Winds

METAR

YBNA 250500Z AUTO 27016KT 9999 // NCD 21/00 Q1010

TAF

Not found

Frequencies

Recorded 134.80 MHz ATIS
Unicom 124.20 MHz Ballina Unicom
Warning: Do not use this data for real-world aviation or navigation. No guarantee of current accuracy is given.